sensor_id;sensor_type;location;lat;lon;timestamp;P1;durP1;ratioP1;P2;durP2;ratioP2
67979;SDS011;54760;47.490;19.030;2024-03-08T00:00:23;16.40;;;11.05;;
67979;SDS011;54760;47.490;19.030;2024-03-08T00:02:48;17.95;;;10.82;;
67979;SDS011;54760;47.490;19.030;2024-03-08T00:05:15;17.20;;;11.32;;
67979;SDS011;54760;47.490;19.030;2024-03-08T00:07:41;17.33;;;11.00;;
67979;SDS011;54760;47.490;19.030;2024-03-08T00:10:08;17.67;;;11.25;;
67979;SDS011;54760;47.490;19.030;2024-03-08T00:12:39;16.58;;;10.98;;
67979;SDS011;54760;47.490;19.030;2024-03-08T00:15:09;15.90;;;10.75;;
67979;SDS011;54760;47.490;19.030;2024-03-08T00:17:36;16.77;;;11.18;;
67979;SDS011;54760;47.490;19.030;2024-03-08T00:20:02;17.62;;;11.38;;
67979;SDS011;54760;47.490;19.030;2024-03-08T00:22:33;18.02;;;11.45;;
67979;SDS011;54760;47.490;19.030;2024-03-08T00:25:02;15.18;;;11.12;;
67979;SDS011;54760;47.490;19.030;2024-03-08T00:27:28;17.70;;;11.88;;
67979;SDS011;54760;47.490;19.030;2024-03-08T00:29:55;25.10;;;12.23;;
67979;SDS011;54760;47.490;19.030;2024-03-08T00:32:21;18.75;;;12.35;;
67979;SDS011;54760;47.490;19.030;2024-03-08T00:34:49;16.95;;;12.20;;
67979;SDS011;54760;47.490;19.030;2024-03-08T00:37:16;21.05;;;12.57;;
67979;SDS011;54760;47.490;19.030;2024-03-08T00:39:42;19.08;;;11.40;;
67979;SDS011;54760;47.490;19.030;2024-03-08T00:42:08;17.70;;;11.77;;
67979;SDS011;54760;47.490;19.030;2024-03-08T00:44:33;18.30;;;12.37;;
67979;SDS011;54760;47.490;19.030;2024-03-08T00:46:58;17.50;;;11.95;;
67979;SDS011;54760;47.490;19.030;2024-03-08T00:49:24;18.40;;;12.43;;
67979;SDS011;54760;47.490;19.030;2024-03-08T00:51:50;20.65;;;12.52;;
67979;SDS011;54760;47.490;19.030;2024-03-08T00:54:15;18.95;;;12.50;;
67979;SDS011;54760;47.490;19.030;2024-03-08T00:56:41;17.73;;;11.73;;
67979;SDS011;54760;47.490;19.030;2024-03-08T00:59:07;19.77;;;12.25;;
67979;SDS011;54760;47.490;19.030;2024-03-08T01:01:32;19.40;;;12.75;;
67979;SDS011;54760;47.490;19.030;2024-03-08T01:03:58;17.80;;;12.68;;
67979;SDS011;54760;47.490;19.030;2024-03-08T01:06:24;21.27;;;12.60;;
67979;SDS011;54760;47.490;19.030;2024-03-08T01:08:49;21.02;;;13.13;;
67979;SDS011;54760;47.490;19.030;2024-03-08T01:11:17;25.58;;;13.68;;
67979;SDS011;54760;47.490;19.030;2024-03-08T01:13:44;20.88;;;13.02;;
67979;SDS011;54760;47.490;19.030;2024-03-08T01:16:12;19.15;;;13.35;;
67979;SDS011;54760;47.490;19.030;2024-03-08T01:18:38;20.75;;;13.40;;
67979;SDS011;54760;47.490;19.030;2024-03-08T01:21:03;19.92;;;12.98;;
67979;SDS011;54760;47.490;19.030;2024-03-08T01:23:29;21.02;;;14.00;;
67979;SDS011;54760;47.490;19.030;2024-03-08T01:25:55;20.85;;;13.10;;
67979;SDS011;54760;47.490;19.030;2024-03-08T01:28:23;19.65;;;13.65;;
67979;SDS011;54760;47.490;19.030;2024-03-08T01:30:49;19.92;;;12.88;;
67979;SDS011;54760;47.490;19.030;2024-03-08T01:33:20;19.87;;;12.48;;
67979;SDS011;54760;47.490;19.030;2024-03-08T01:35:50;20.30;;;13.82;;
67979;SDS011;54760;47.490;19.030;2024-03-08T01:38:19;20.88;;;13.50;;
67979;SDS011;54760;47.490;19.030;2024-03-08T01:40:48;22.13;;;14.27;;
67979;SDS011;54760;47.490;19.030;2024-03-08T01:46:01;23.58;;;14.98;;
67979;SDS011;54760;47.490;19.030;2024-03-08T01:48:28;25.75;;;14.82;;
67979;SDS011;54760;47.490;19.030;2024-03-08T01:50:54;23.83;;;15.57;;
67979;SDS011;54760;47.490;19.030;2024-03-08T01:53:21;25.75;;;15.85;;
67979;SDS011;54760;47.490;19.030;2024-03-08T01:55:48;24.23;;;15.52;;
67979;SDS011;54760;47.490;19.030;2024-03-08T01:58:14;25.90;;;15.73;;
67979;SDS011;54760;47.490;19.030;2024-03-08T02:00:41;22.87;;;15.45;;
67979;SDS011;54760;47.490;19.030;2024-03-08T02:03:08;26.33;;;16.08;;
67979;SDS011;54760;47.490;19.030;2024-03-08T02:05:34;23.05;;;14.80;;
67979;SDS011;54760;47.490;19.030;2024-03-08T02:08:00;28.48;;;17.12;;
67979;SDS011;54760;47.490;19.030;2024-03-08T02:10:27;31.37;;;16.83;;
67979;SDS011;54760;47.490;19.030;2024-03-08T02:12:53;26.42;;;15.93;;
67979;SDS011;54760;47.490;19.030;2024-03-08T02:15:19;26.62;;;16.65;;
67979;SDS011;54760;47.490;19.030;2024-03-08T02:17:44;28.23;;;16.15;;
67979;SDS011;54760;47.490;19.030;2024-03-08T02:20:10;27.95;;;16.42;;
67979;SDS011;54760;47.490;19.030;2024-03-08T02:22:38;28.73;;;16.98;;
67979;SDS011;54760;47.490;19.030;2024-03-08T02:25:03;29.58;;;18.00;;
67979;SDS011;54760;47.490;19.030;2024-03-08T02:27:30;30.40;;;17.23;;
67979;SDS011;54760;47.490;19.030;2024-03-08T02:29:56;30.48;;;17.50;;
67979;SDS011;54760;47.490;19.030;2024-03-08T02:32:25;26.95;;;17.25;;
67979;SDS011;54760;47.490;19.030;2024-03-08T02:34:51;31.58;;;17.92;;
67979;SDS011;54760;47.490;19.030;2024-03-08T02:37:22;33.67;;;19.12;;
67979;SDS011;54760;47.490;19.030;2024-03-08T02:39:47;29.15;;;17.77;;
67979;SDS011;54760;47.490;19.030;2024-03-08T02:42:12;34.35;;;19.25;;
67979;SDS011;54760;47.490;19.030;2024-03-08T02:44:41;31.02;;;18.42;;
67979;SDS011;54760;47.490;19.030;2024-03-08T02:47:09;34.47;;;18.48;;
67979;SDS011;54760;47.490;19.030;2024-03-08T02:49:35;33.20;;;19.12;;
67979;SDS011;54760;47.490;19.030;2024-03-08T02:52:02;34.60;;;20.02;;
67979;SDS011;54760;47.490;19.030;2024-03-08T02:54:27;30.70;;;18.55;;
67979;SDS011;54760;47.490;19.030;2024-03-08T02:56:53;37.13;;;19.85;;
67979;SDS011;54760;47.490;19.030;2024-03-08T02:59:18;35.72;;;19.45;;
67979;SDS011;54760;47.490;19.030;2024-03-08T03:01:44;33.88;;;19.58;;
67979;SDS011;54760;47.490;19.030;2024-03-08T03:04:09;34.72;;;20.67;;
67979;SDS011;54760;47.490;19.030;2024-03-08T03:06:35;31.73;;;20.15;;
67979;SDS011;54760;47.490;19.030;2024-03-08T03:09:00;34.58;;;20.42;;
67979;SDS011;54760;47.490;19.030;2024-03-08T03:11:26;37.72;;;20.55;;
67979;SDS011;54760;47.490;19.030;2024-03-08T03:13:52;35.13;;;20.12;;
67979;SDS011;54760;47.490;19.030;2024-03-08T03:16:18;35.08;;;20.33;;
67979;SDS011;54760;47.490;19.030;2024-03-08T03:18:48;37.08;;;20.83;;
67979;SDS011;54760;47.490;19.030;2024-03-08T03:21:14;37.60;;;21.30;;
67979;SDS011;54760;47.490;19.030;2024-03-08T03:23:40;36.78;;;20.45;;
67979;SDS011;54760;47.490;19.030;2024-03-08T03:26:06;41.95;;;21.30;;
67979;SDS011;54760;47.490;19.030;2024-03-08T03:28:36;38.70;;;21.25;;
67979;SDS011;54760;47.490;19.030;2024-03-08T03:31:04;37.22;;;21.08;;
67979;SDS011;54760;47.490;19.030;2024-03-08T03:33:32;35.53;;;20.70;;
67979;SDS011;54760;47.490;19.030;2024-03-08T03:36:02;36.42;;;20.30;;
67979;SDS011;54760;47.490;19.030;2024-03-08T03:38:28;38.90;;;20.67;;
67979;SDS011;54760;47.490;19.030;2024-03-08T03:40:53;35.78;;;20.12;;
67979;SDS011;54760;47.490;19.030;2024-03-08T03:43:22;34.47;;;20.23;;
67979;SDS011;54760;47.490;19.030;2024-03-08T03:45:48;34.35;;;20.58;;
67979;SDS011;54760;47.490;19.030;2024-03-08T03:48:13;35.90;;;19.92;;
67979;SDS011;54760;47.490;19.030;2024-03-08T03:50:39;36.78;;;21.17;;
67979;SDS011;54760;47.490;19.030;2024-03-08T03:53:04;41.42;;;20.77;;
67979;SDS011;54760;47.490;19.030;2024-03-08T03:55:33;36.85;;;20.08;;
67979;SDS011;54760;47.490;19.030;2024-03-08T03:57:58;37.20;;;20.98;;
67979;SDS011;54760;47.490;19.030;2024-03-08T04:00:26;42.83;;;21.98;;
67979;SDS011;54760;47.490;19.030;2024-03-08T04:02:52;37.30;;;19.98;;
67979;SDS011;54760;47.490;19.030;2024-03-08T04:05:18;36.33;;;20.80;;
67979;SDS011;54760;47.490;19.030;2024-03-08T04:07:43;37.38;;;21.10;;
67979;SDS011;54760;47.490;19.030;2024-03-08T04:10:10;34.70;;;20.80;;
67979;SDS011;54760;47.490;19.030;2024-03-08T04:12:36;38.95;;;21.30;;
67979;SDS011;54760;47.490;19.030;2024-03-08T04:15:02;38.30;;;21.25;;
67979;SDS011;54760;47.490;19.030;2024-03-08T04:17:28;37.63;;;21.45;;
67979;SDS011;54760;47.490;19.030;2024-03-08T04:19:53;41.22;;;21.37;;
67979;SDS011;54760;47.490;19.030;2024-03-08T04:22:19;36.67;;;21.52;;
67979;SDS011;54760;47.490;19.030;2024-03-08T04:24:45;37.33;;;20.88;;
67979;SDS011;54760;47.490;19.030;2024-03-08T04:27:11;36.88;;;20.88;;
67979;SDS011;54760;47.490;19.030;2024-03-08T04:29:37;35.67;;;21.75;;
67979;SDS011;54760;47.490;19.030;2024-03-08T04:32:03;34.28;;;20.12;;
67979;SDS011;54760;47.490;19.030;2024-03-08T04:34:30;35.65;;;21.08;;
67979;SDS011;54760;47.490;19.030;2024-03-08T04:36:58;35.20;;;20.70;;
67979;SDS011;54760;47.490;19.030;2024-03-08T04:39:24;37.53;;;21.80;;
67979;SDS011;54760;47.490;19.030;2024-03-08T04:41:53;38.33;;;21.25;;
67979;SDS011;54760;47.490;19.030;2024-03-08T04:44:19;37.78;;;21.20;;
67979;SDS011;54760;47.490;19.030;2024-03-08T04:46:45;36.95;;;20.50;;
67979;SDS011;54760;47.490;19.030;2024-03-08T04:49:11;39.60;;;21.77;;
67979;SDS011;54760;47.490;19.030;2024-03-08T04:51:38;38.85;;;20.70;;
67979;SDS011;54760;47.490;19.030;2024-03-08T04:54:04;37.67;;;20.75;;
67979;SDS011;54760;47.490;19.030;2024-03-08T04:56:30;38.25;;;21.08;;
67979;SDS011;54760;47.490;19.030;2024-03-08T04:58:55;38.20;;;21.40;;
67979;SDS011;54760;47.490;19.030;2024-03-08T05:01:21;42.75;;;21.50;;
67979;SDS011;54760;47.490;19.030;2024-03-08T05:03:46;39.28;;;22.08;;
67979;SDS011;54760;47.490;19.030;2024-03-08T05:06:15;38.47;;;20.73;;
67979;SDS011;54760;47.490;19.030;2024-03-08T05:08:41;37.70;;;21.80;;
67979;SDS011;54760;47.490;19.030;2024-03-08T05:11:06;42.40;;;21.62;;
67979;SDS011;54760;47.490;19.030;2024-03-08T05:13:32;39.35;;;20.95;;
67979;SDS011;54760;47.490;19.030;2024-03-08T05:15:59;33.72;;;20.40;;
67979;SDS011;54760;47.490;19.030;2024-03-08T05:18:24;36.15;;;21.95;;
67979;SDS011;54760;47.490;19.030;2024-03-08T05:20:50;37.42;;;21.75;;
67979;SDS011;54760;47.490;19.030;2024-03-08T05:23:16;37.85;;;20.73;;
67979;SDS011;54760;47.490;19.030;2024-03-08T05:25:44;37.22;;;21.37;;
67979;SDS011;54760;47.490;19.030;2024-03-08T05:28:11;35.53;;;20.67;;
67979;SDS011;54760;47.490;19.030;2024-03-08T05:30:37;37.58;;;21.58;;
67979;SDS011;54760;47.490;19.030;2024-03-08T05:33:03;39.50;;;21.80;;
67979;SDS011;54760;47.490;19.030;2024-03-08T05:35:29;39.63;;;20.90;;
67979;SDS011;54760;47.490;19.030;2024-03-08T05:37:54;40.45;;;21.40;;
67979;SDS011;54760;47.490;19.030;2024-03-08T05:40:20;35.33;;;20.95;;
67979;SDS011;54760;47.490;19.030;2024-03-08T05:42:45;35.28;;;21.52;;
67979;SDS011;54760;47.490;19.030;2024-03-08T05:45:11;40.72;;;21.42;;
67979;SDS011;54760;47.490;19.030;2024-03-08T05:47:36;37.78;;;21.00;;
67979;SDS011;54760;47.490;19.030;2024-03-08T05:50:04;38.55;;;21.02;;
67979;SDS011;54760;47.490;19.030;2024-03-08T05:52:32;39.13;;;21.50;;
67979;SDS011;54760;47.490;19.030;2024-03-08T05:54:58;37.17;;;21.33;;
67979;SDS011;54760;47.490;19.030;2024-03-08T05:57:23;38.10;;;21.02;;
67979;SDS011;54760;47.490;19.030;2024-03-08T05:59:49;37.53;;;21.83;;
67979;SDS011;54760;47.490;19.030;2024-03-08T06:02:14;41.88;;;21.48;;
67979;SDS011;54760;47.490;19.030;2024-03-08T06:04:44;39.90;;;22.30;;
67979;SDS011;54760;47.490;19.030;2024-03-08T06:07:12;47.90;;;21.10;;
67979;SDS011;54760;47.490;19.030;2024-03-08T06:09:37;41.00;;;21.52;;
67979;SDS011;54760;47.490;19.030;2024-03-08T06:12:03;39.40;;;20.95;;
67979;SDS011;54760;47.490;19.030;2024-03-08T06:14:31;40.20;;;21.52;;
67979;SDS011;54760;47.490;19.030;2024-03-08T06:16:57;39.50;;;21.10;;
67979;SDS011;54760;47.490;19.030;2024-03-08T06:19:22;37.10;;;20.85;;
67979;SDS011;54760;47.490;19.030;2024-03-08T06:21:48;38.38;;;21.25;;
67979;SDS011;54760;47.490;19.030;2024-03-08T06:24:13;38.28;;;21.05;;
67979;SDS011;54760;47.490;19.030;2024-03-08T06:26:40;35.05;;;20.48;;
67979;SDS011;54760;47.490;19.030;2024-03-08T06:29:06;43.47;;;22.75;;
67979;SDS011;54760;47.490;19.030;2024-03-08T06:31:34;39.95;;;21.27;;
67979;SDS011;54760;47.490;19.030;2024-03-08T06:33:59;39.33;;;21.58;;
67979;SDS011;54760;47.490;19.030;2024-03-08T06:36:25;39.30;;;21.62;;
67979;SDS011;54760;47.490;19.030;2024-03-08T06:38:50;42.72;;;22.42;;
67979;SDS011;54760;47.490;19.030;2024-03-08T06:41:16;35.33;;;20.52;;
67979;SDS011;54760;47.490;19.030;2024-03-08T06:43:42;36.83;;;21.45;;
67979;SDS011;54760;47.490;19.030;2024-03-08T06:46:08;36.83;;;21.37;;
67979;SDS011;54760;47.490;19.030;2024-03-08T06:48:34;39.83;;;22.27;;
67979;SDS011;54760;47.490;19.030;2024-03-08T06:51:00;36.22;;;21.48;;
67979;SDS011;54760;47.490;19.030;2024-03-08T06:53:25;34.63;;;21.35;;
67979;SDS011;54760;47.490;19.030;2024-03-08T06:55:51;37.67;;;21.77;;
67979;SDS011;54760;47.490;19.030;2024-03-08T06:58:16;38.55;;;21.33;;
67979;SDS011;54760;47.490;19.030;2024-03-08T07:00:42;41.00;;;22.70;;
67979;SDS011;54760;47.490;19.030;2024-03-08T07:03:09;39.22;;;21.50;;
67979;SDS011;54760;47.490;19.030;2024-03-08T07:05:37;41.42;;;22.58;;
67979;SDS011;54760;47.490;19.030;2024-03-08T07:08:03;39.42;;;22.02;;
67979;SDS011;54760;47.490;19.030;2024-03-08T07:10:28;37.75;;;21.50;;
67979;SDS011;54760;47.490;19.030;2024-03-08T07:12:54;44.13;;;21.95;;
67979;SDS011;54760;47.490;19.030;2024-03-08T07:15:19;36.65;;;20.95;;
67979;SDS011;54760;47.490;19.030;2024-03-08T07:17:45;39.92;;;21.92;;
67979;SDS011;54760;47.490;19.030;2024-03-08T07:20:11;37.55;;;21.23;;
67979;SDS011;54760;47.490;19.030;2024-03-08T07:22:38;38.92;;;22.10;;
67979;SDS011;54760;47.490;19.030;2024-03-08T07:25:05;37.10;;;21.70;;
67979;SDS011;54760;47.490;19.030;2024-03-08T07:27:49;40.75;;;21.77;;
67979;SDS011;54760;47.490;19.030;2024-03-08T07:30:22;41.13;;;23.25;;
67979;SDS011;54760;47.490;19.030;2024-03-08T07:33:09;37.33;;;21.73;;
67979;SDS011;54760;47.490;19.030;2024-03-08T07:35:40;41.30;;;22.52;;
67979;SDS011;54760;47.490;19.030;2024-03-08T07:38:06;42.70;;;24.15;;
67979;SDS011;54760;47.490;19.030;2024-03-08T07:40:37;44.15;;;22.50;;
67979;SDS011;54760;47.490;19.030;2024-03-08T07:43:06;39.92;;;23.45;;
67979;SDS011;54760;47.490;19.030;2024-03-08T07:45:32;44.67;;;23.35;;
67979;SDS011;54760;47.490;19.030;2024-03-08T07:47:57;41.92;;;23.00;;
67979;SDS011;54760;47.490;19.030;2024-03-08T07:50:23;41.60;;;22.62;;
67979;SDS011;54760;47.490;19.030;2024-03-08T07:52:49;43.80;;;23.23;;
67979;SDS011;54760;47.490;19.030;2024-03-08T07:55:14;44.28;;;23.70;;
67979;SDS011;54760;47.490;19.030;2024-03-08T07:57:40;43.67;;;23.42;;
67979;SDS011;54760;47.490;19.030;2024-03-08T08:00:05;42.90;;;22.75;;
67979;SDS011;54760;47.490;19.030;2024-03-08T08:02:33;44.70;;;24.27;;
67979;SDS011;54760;47.490;19.030;2024-03-08T08:05:00;42.72;;;23.10;;
67979;SDS011;54760;47.490;19.030;2024-03-08T08:07:25;40.63;;;22.62;;
67979;SDS011;54760;47.490;19.030;2024-03-08T08:09:52;41.37;;;23.42;;
67979;SDS011;54760;47.490;19.030;2024-03-08T08:12:17;43.38;;;23.40;;
67979;SDS011;54760;47.490;19.030;2024-03-08T08:14:43;44.85;;;23.38;;
67979;SDS011;54760;47.490;19.030;2024-03-08T08:17:08;46.42;;;23.38;;
67979;SDS011;54760;47.490;19.030;2024-03-08T08:19:34;41.53;;;23.02;;
67979;SDS011;54760;47.490;19.030;2024-03-08T08:22:03;46.88;;;23.52;;
67979;SDS011;54760;47.490;19.030;2024-03-08T08:24:29;45.20;;;23.85;;
67979;SDS011;54760;47.490;19.030;2024-03-08T08:26:54;47.10;;;24.02;;
67979;SDS011;54760;47.490;19.030;2024-03-08T08:29:20;47.35;;;24.23;;
67979;SDS011;54760;47.490;19.030;2024-03-08T08:31:47;46.15;;;23.80;;
67979;SDS011;54760;47.490;19.030;2024-03-08T08:34:12;46.50;;;24.15;;
67979;SDS011;54760;47.490;19.030;2024-03-08T08:36:39;48.97;;;23.90;;
67979;SDS011;54760;47.490;19.030;2024-03-08T08:39:04;47.05;;;24.35;;
67979;SDS011;54760;47.490;19.030;2024-03-08T08:41:37;47.67;;;24.15;;
67979;SDS011;54760;47.490;19.030;2024-03-08T08:44:02;52.97;;;23.65;;
67979;SDS011;54760;47.490;19.030;2024-03-08T08:46:28;49.83;;;25.48;;
67979;SDS011;54760;47.490;19.030;2024-03-08T08:48:53;51.05;;;25.20;;
67979;SDS011;54760;47.490;19.030;2024-03-08T08:51:19;48.40;;;23.83;;
67979;SDS011;54760;47.490;19.030;2024-03-08T08:53:44;48.47;;;24.25;;
67979;SDS011;54760;47.490;19.030;2024-03-08T08:56:12;45.08;;;22.87;;
67979;SDS011;54760;47.490;19.030;2024-03-08T08:58:40;43.87;;;23.50;;
67979;SDS011;54760;47.490;19.030;2024-03-08T09:01:07;48.97;;;24.65;;
67979;SDS011;54760;47.490;19.030;2024-03-08T09:03:35;41.47;;;22.25;;
67979;SDS011;54760;47.490;19.030;2024-03-08T09:06:02;45.30;;;23.30;;
67979;SDS011;54760;47.490;19.030;2024-03-08T09:08:30;45.92;;;23.23;;
67979;SDS011;54760;47.490;19.030;2024-03-08T09:10:56;43.45;;;24.15;;
67979;SDS011;54760;47.490;19.030;2024-03-08T09:13:21;42.47;;;22.80;;
67979;SDS011;54760;47.490;19.030;2024-03-08T09:15:47;44.47;;;23.80;;
67979;SDS011;54760;47.490;19.030;2024-03-08T09:18:13;46.10;;;25.05;;
67979;SDS011;54760;47.490;19.030;2024-03-08T09:20:38;53.22;;;23.65;;
67979;SDS011;54760;47.490;19.030;2024-03-08T09:23:06;45.70;;;23.00;;
67979;SDS011;54760;47.490;19.030;2024-03-08T09:25:31;42.53;;;23.17;;
67979;SDS011;54760;47.490;19.030;2024-03-08T09:27:57;43.42;;;23.40;;
67979;SDS011;54760;47.490;19.030;2024-03-08T09:30:23;44.92;;;23.77;;
67979;SDS011;54760;47.490;19.030;2024-03-08T09:32:49;47.38;;;23.50;;
67979;SDS011;54760;47.490;19.030;2024-03-08T09:35:16;48.08;;;24.40;;
67979;SDS011;54760;47.490;19.030;2024-03-08T09:37:41;42.72;;;23.85;;
67979;SDS011;54760;47.490;19.030;2024-03-08T09:40:07;44.65;;;24.42;;
67979;SDS011;54760;47.490;19.030;2024-03-08T09:42:40;43.92;;;23.98;;
67979;SDS011;54760;47.490;19.030;2024-03-08T09:45:09;49.13;;;24.37;;
67979;SDS011;54760;47.490;19.030;2024-03-08T09:47:35;46.80;;;24.27;;
67979;SDS011;54760;47.490;19.030;2024-03-08T09:50:05;48.20;;;24.02;;
67979;SDS011;54760;47.490;19.030;2024-03-08T09:52:37;40.30;;;23.52;;
67979;SDS011;54760;47.490;19.030;2024-03-08T09:55:07;45.83;;;22.70;;
67979;SDS011;54760;47.490;19.030;2024-03-08T09:57:36;46.28;;;24.52;;
67979;SDS011;54760;47.490;19.030;2024-03-08T10:00:03;42.13;;;23.25;;
67979;SDS011;54760;47.490;19.030;2024-03-08T10:02:48;41.90;;;22.85;;
67979;SDS011;54760;47.490;19.030;2024-03-08T10:05:17;43.63;;;23.95;;
67979;SDS011;54760;47.490;19.030;2024-03-08T10:07:43;41.75;;;24.52;;
67979;SDS011;54760;47.490;19.030;2024-03-08T10:10:09;46.45;;;24.65;;
67979;SDS011;54760;47.490;19.030;2024-03-08T10:12:37;43.83;;;23.48;;
67979;SDS011;54760;47.490;19.030;2024-03-08T10:15:04;45.05;;;24.20;;
67979;SDS011;54760;47.490;19.030;2024-03-08T10:17:36;41.40;;;23.73;;
67979;SDS011;54760;47.490;19.030;2024-03-08T10:20:02;43.08;;;24.10;;
67979;SDS011;54760;47.490;19.030;2024-03-08T10:22:28;45.72;;;23.45;;
67979;SDS011;54760;47.490;19.030;2024-03-08T10:24:54;43.33;;;23.30;;
67979;SDS011;54760;47.490;19.030;2024-03-08T10:27:20;41.65;;;22.27;;
67979;SDS011;54760;47.490;19.030;2024-03-08T10:29:48;42.20;;;23.80;;
67979;SDS011;54760;47.490;19.030;2024-03-08T10:32:16;43.65;;;23.90;;
67979;SDS011;54760;47.490;19.030;2024-03-08T10:34:42;43.90;;;23.73;;
67979;SDS011;54760;47.490;19.030;2024-03-08T10:37:08;47.28;;;24.85;;
67979;SDS011;54760;47.490;19.030;2024-03-08T10:39:42;47.22;;;23.45;;
67979;SDS011;54760;47.490;19.030;2024-03-08T10:42:17;44.80;;;23.08;;
67979;SDS011;54760;47.490;19.030;2024-03-08T10:45:07;39.95;;;22.45;;
67979;SDS011;54760;47.490;19.030;2024-03-08T10:47:41;46.17;;;24.00;;
67979;SDS011;54760;47.490;19.030;2024-03-08T10:52:51;42.62;;;23.87;;
67979;SDS011;54760;47.490;19.030;2024-03-08T10:55:17;45.53;;;24.17;;
67979;SDS011;54760;47.490;19.030;2024-03-08T10:57:45;42.45;;;23.77;;
67979;SDS011;54760;47.490;19.030;2024-03-08T11:00:12;41.40;;;23.23;;
67979;SDS011;54760;47.490;19.030;2024-03-08T11:02:39;45.53;;;23.98;;
67979;SDS011;54760;47.490;19.030;2024-03-08T11:05:15;35.67;;;21.67;;
67979;SDS011;54760;47.490;19.030;2024-03-08T11:08:01;44.53;;;20.90;;
67979;SDS011;54760;47.490;19.030;2024-03-08T11:10:28;37.25;;;21.25;;
67979;SDS011;54760;47.490;19.030;2024-03-08T11:12:55;37.10;;;21.55;;
67979;SDS011;54760;47.490;19.030;2024-03-08T11:15:21;35.80;;;20.70;;
67979;SDS011;54760;47.490;19.030;2024-03-08T11:17:47;38.92;;;21.35;;
67979;SDS011;54760;47.490;19.030;2024-03-08T11:20:14;38.85;;;21.55;;
67979;SDS011;54760;47.490;19.030;2024-03-08T11:22:51;35.63;;;20.88;;
67979;SDS011;54760;47.490;19.030;2024-03-08T11:28:06;37.70;;;20.50;;
67979;SDS011;54760;47.490;19.030;2024-03-08T11:30:33;37.45;;;20.25;;
67979;SDS011;54760;47.490;19.030;2024-03-08T11:33:00;31.67;;;20.73;;
67979;SDS011;54760;47.490;19.030;2024-03-08T11:35:28;30.02;;;18.48;;
67979;SDS011;54760;47.490;19.030;2024-03-08T11:37:53;33.63;;;19.80;;
67979;SDS011;54760;47.490;19.030;2024-03-08T11:40:19;35.42;;;20.05;;
67979;SDS011;54760;47.490;19.030;2024-03-08T11:42:46;30.75;;;20.05;;
67979;SDS011;54760;47.490;19.030;2024-03-08T11:45:16;34.08;;;20.58;;
67979;SDS011;54760;47.490;19.030;2024-03-08T11:47:42;36.13;;;20.35;;
67979;SDS011;54760;47.490;19.030;2024-03-08T11:50:11;31.75;;;19.45;;
67979;SDS011;54760;47.490;19.030;2024-03-08T11:52:40;34.15;;;20.10;;
67979;SDS011;54760;47.490;19.030;2024-03-08T11:55:05;32.95;;;20.02;;
67979;SDS011;54760;47.490;19.030;2024-03-08T11:57:31;32.63;;;18.80;;
67979;SDS011;54760;47.490;19.030;2024-03-08T11:59:57;32.40;;;20.40;;
67979;SDS011;54760;47.490;19.030;2024-03-08T12:02:32;35.90;;;20.33;;
67979;SDS011;54760;47.490;19.030;2024-03-08T12:05:01;30.37;;;19.87;;
67979;SDS011;54760;47.490;19.030;2024-03-08T12:07:31;33.75;;;19.87;;
67979;SDS011;54760;47.490;19.030;2024-03-08T12:10:18;36.58;;;21.60;;
67979;SDS011;54760;47.490;19.030;2024-03-08T12:12:50;32.95;;;20.30;;
67979;SDS011;54760;47.490;19.030;2024-03-08T12:15:17;32.88;;;20.27;;
67979;SDS011;54760;47.490;19.030;2024-03-08T12:17:44;36.17;;;20.88;;
67979;SDS011;54760;47.490;19.030;2024-03-08T12:22:46;35.10;;;20.37;;
67979;SDS011;54760;47.490;19.030;2024-03-08T12:25:12;35.50;;;20.62;;
67979;SDS011;54760;47.490;19.030;2024-03-08T12:27:39;35.35;;;20.80;;
67979;SDS011;54760;47.490;19.030;2024-03-08T12:30:18;33.35;;;20.80;;
67979;SDS011;54760;47.490;19.030;2024-03-08T12:32:52;38.67;;;22.37;;
67979;SDS011;54760;47.490;19.030;2024-03-08T12:35:27;38.60;;;22.37;;
67979;SDS011;54760;47.490;19.030;2024-03-08T12:37:54;40.17;;;23.70;;
67979;SDS011;54760;47.490;19.030;2024-03-08T12:40:27;37.88;;;22.40;;
67979;SDS011;54760;47.490;19.030;2024-03-08T12:42:56;37.03;;;21.48;;
67979;SDS011;54760;47.490;19.030;2024-03-08T12:45:26;28.23;;;17.17;;
67979;SDS011;54760;47.490;19.030;2024-03-08T12:47:52;30.30;;;18.08;;
67979;SDS011;54760;47.490;19.030;2024-03-08T12:50:21;29.60;;;18.37;;
67979;SDS011;54760;47.490;19.030;2024-03-08T12:52:48;29.58;;;19.12;;
67979;SDS011;54760;47.490;19.030;2024-03-08T12:55:14;30.23;;;18.42;;
67979;SDS011;54760;47.490;19.030;2024-03-08T12:57:41;33.10;;;18.65;;
67979;SDS011;54760;47.490;19.030;2024-03-08T13:00:07;32.80;;;19.02;;
67979;SDS011;54760;47.490;19.030;2024-03-08T13:02:38;24.87;;;17.62;;
67979;SDS011;54760;47.490;19.030;2024-03-08T13:05:04;31.37;;;17.98;;
67979;SDS011;54760;47.490;19.030;2024-03-08T13:07:30;27.90;;;17.77;;
67979;SDS011;54760;47.490;19.030;2024-03-08T13:09:56;25.80;;;17.10;;
67979;SDS011;54760;47.490;19.030;2024-03-08T13:12:24;32.55;;;17.25;;
67979;SDS011;54760;47.490;19.030;2024-03-08T13:14:50;25.60;;;16.55;;
67979;SDS011;54760;47.490;19.030;2024-03-08T13:17:16;18.37;;;12.60;;
67979;SDS011;54760;47.490;19.030;2024-03-08T13:19:43;21.92;;;13.35;;
67979;SDS011;54760;47.490;19.030;2024-03-08T13:22:10;19.00;;;13.77;;
67979;SDS011;54760;47.490;19.030;2024-03-08T13:24:38;20.85;;;14.02;;
67979;SDS011;54760;47.490;19.030;2024-03-08T13:27:06;26.02;;;13.93;;
67979;SDS011;54760;47.490;19.030;2024-03-08T13:29:42;19.98;;;13.75;;
67979;SDS011;54760;47.490;19.030;2024-03-08T13:32:08;17.70;;;12.98;;
67979;SDS011;54760;47.490;19.030;2024-03-08T13:34:36;19.45;;;13.10;;
67979;SDS011;54760;47.490;19.030;2024-03-08T13:37:02;19.55;;;13.23;;
67979;SDS011;54760;47.490;19.030;2024-03-08T13:39:30;22.10;;;13.73;;
67979;SDS011;54760;47.490;19.030;2024-03-08T13:42:06;21.40;;;13.48;;
67979;SDS011;54760;47.490;19.030;2024-03-08T13:44:37;37.67;;;21.25;;
67979;SDS011;54760;47.490;19.030;2024-03-08T13:47:03;29.77;;;18.08;;
67979;SDS011;54760;47.490;19.030;2024-03-08T13:49:29;32.45;;;18.23;;
67979;SDS011;54760;47.490;19.030;2024-03-08T13:51:55;29.33;;;18.45;;
67979;SDS011;54760;47.490;19.030;2024-03-08T13:54:23;33.08;;;20.70;;
67979;SDS011;54760;47.490;19.030;2024-03-08T13:56:49;37.88;;;20.52;;
67979;SDS011;54760;47.490;19.030;2024-03-08T13:59:14;33.40;;;19.77;;
67979;SDS011;54760;47.490;19.030;2024-03-08T14:01:40;33.78;;;19.52;;
67979;SDS011;54760;47.490;19.030;2024-03-08T14:04:05;29.30;;;19.02;;
67979;SDS011;54760;47.490;19.030;2024-03-08T14:06:33;35.95;;;19.55;;
67979;SDS011;54760;47.490;19.030;2024-03-08T14:08:59;33.80;;;19.17;;
67979;SDS011;54760;47.490;19.030;2024-03-08T14:11:24;37.70;;;19.83;;
67979;SDS011;54760;47.490;19.030;2024-03-08T14:13:50;44.60;;;20.17;;
67979;SDS011;54760;47.490;19.030;2024-03-08T14:16:15;35.60;;;19.55;;
67979;SDS011;54760;47.490;19.030;2024-03-08T14:18:42;33.53;;;18.58;;